Time;durP1;ratioP1;P1;durP2;ratioP2;P2;SDS_P1;SDS_P2;PMS_P1;PMS_P2;Temp;Humidity;BMP_temperature;BMP_pressure;BME280_temperature;BME280_humidity;BME280_pressure;Samples;Min_cycle;Max_cycle;Signal;HPM_P1;HPM_P2
2021/01/17 00:00:06;;;;;;;33.47;23.67;;;0.30;99.90;;;;;;4956073;29;20220;-26
2021/01/17 00:02:40;;;;;;;29.15;19.65;;;0.40;99.90;;;;;;4955509;29;20196;-26
2021/01/17 00:05:10;;;;;;;29.33;20.37;;;0.40;99.90;;;;;;4954834;29;20220;-26
2021/01/17 00:07:37;;;;;;;30.70;21.63;;;0.40;99.90;;;;;;4956150;29;20799;-26
2021/01/17 00:10:05;;;;;;;30.33;19.95;;;0.40;99.90;;;;;;4955340;28;20204;-26
2021/01/17 00:12:32;;;;;;;30.52;19.40;;;0.50;99.90;;;;;;4955419;29;20223;-26
2021/01/17 00:15:00;;;;;;;28.38;19.17;;;0.50;99.90;;;;;;4955159;29;20203;-26
2021/01/17 00:17:27;;;;;;;29.00;17.98;;;0.40;99.90;;;;;;4954124;29;20324;-26
2021/01/17 00:19:55;;;;;;;35.22;20.25;;;0.30;99.90;;;;;;4954730;29;20750;-26
2021/01/17 00:22:22;;;;;;;27.45;19.40;;;0.30;99.90;;;;;;4954944;29;20196;-26
2021/01/17 00:24:49;;;;;;;33.73;20.97;;;0.30;99.90;;;;;;4954864;29;20196;-27
2021/01/17 00:27:16;;;;;;;33.63;21.35;;;0.30;99.90;;;;;;4952851;29;20433;-26
2021/01/17 00:29:43;;;;;;;30.38;21.20;;;0.40;99.90;;;;;;4953148;29;20192;-26
2021/01/17 00:32:10;;;;;;;30.70;20.85;;;0.50;99.90;;;;;;4952360;29;20277;-26
2021/01/17 00:34:37;;;;;;;31.15;20.00;;;0.60;99.90;;;;;;4952746;29;20200;-26
2021/01/17 00:37:05;;;;;;;29.93;19.67;;;0.60;99.90;;;;;;4951139;29;20825;-26
2021/01/17 00:39:32;;;;;;;25.92;17.88;;;0.60;99.90;;;;;;4952132;29;20488;-26
2021/01/17 00:42:01;;;;;;;32.05;17.63;;;0.60;99.90;;;;;;4934091;29;20200;-26
2021/01/17 00:44:29;;;;;;;27.03;17.50;;;0.60;99.90;;;;;;4951767;29;20196;-26
2021/01/17 00:46:55;;;;;;;24.17;17.08;;;0.60;99.90;;;;;;4952181;29;20442;-26
2021/01/17 00:49:22;;;;;;;26.90;16.67;;;0.60;99.90;;;;;;4953248;29;20233;-26
2021/01/17 00:51:48;;;;;;;27.03;15.87;;;0.70;99.90;;;;;;4951861;29;20446;-26
2021/01/17 00:54:18;;;;;;;27.42;17.80;;;0.70;99.90;;;;;;4951178;29;20519;-26
2021/01/17 00:56:44;;;;;;;28.50;16.50;;;0.70;99.90;;;;;;4953345;29;20226;-26
2021/01/17 00:59:14;;;;;;;27.60;15.75;;;0.70;99.90;;;;;;4937871;29;20549;-25
2021/01/17 01:01:44;;;;;;;25.20;18.05;;;0.70;99.90;;;;;;4952009;29;20263;-26
2021/01/17 01:04:14;;;;;;;24.40;14.60;;;0.60;99.90;;;;;;4952589;29;20530;-26
2021/01/17 01:06:40;;;;;;;23.92;15.63;;;0.50;99.90;;;;;;4952320;29;20537;-26
2021/01/17 01:09:08;;;;;;;27.95;15.95;;;0.30;99.90;;;;;;4953155;29;20216;-26
2021/01/17 01:11:36;;;;;;;27.73;18.70;;;0.30;99.90;;;;;;4952017;29;20208;-26
2021/01/17 01:14:03;;;;;;;26.92;17.83;;;0.30;99.90;;;;;;4953794;29;20319;-26
2021/01/17 01:16:29;;;;;;;28.83;19.15;;;0.30;99.90;;;;;;4951490;29;20505;-26
2021/01/17 01:18:56;;;;;;;28.58;18.98;;;0.40;99.90;;;;;;4952837;29;20283;-27
2021/01/17 01:21:26;;;;;;;27.95;18.70;;;0.40;99.90;;;;;;4951825;28;20188;-26
2021/01/17 01:23:54;;;;;;;28.38;19.20;;;0.40;99.90;;;;;;4952579;29;20619;-26
2021/01/17 01:26:21;;;;;;;29.52;20.95;;;0.40;99.90;;;;;;4951400;29;20510;-26
2021/01/17 01:28:49;;;;;;;30.65;20.52;;;0.30;99.90;;;;;;4951698;29;20200;-26
2021/01/17 01:31:19;;;;;;;31.27;19.05;;;0.30;99.90;;;;;;4951426;29;20200;-26
2021/01/17 01:33:47;;;;;;;32.47;21.08;;;0.30;99.90;;;;;;4950504;29;20373;-26
2021/01/17 01:36:18;;;;;;;32.63;21.20;;;0.20;99.90;;;;;;4950555;29;20216;-26
2021/01/17 01:38:45;;;;;;;25.67;18.00;;;0.10;99.90;;;;;;4951396;29;20352;-26
2021/01/17 01:41:12;;;;;;;31.10;20.88;;;0.10;99.90;;;;;;4953204;29;20246;-26
2021/01/17 01:43:39;;;;;;;35.00;22.08;;;0.10;99.90;;;;;;4952099;29;20273;-26
2021/01/17 01:46:09;;;;;;;32.80;20.20;;;0.20;99.90;;;;;;4953050;29;20303;-26
2021/01/17 01:48:36;;;;;;;29.52;20.38;;;0.10;99.90;;;;;;4951508;29;20295;-26
2021/01/17 01:51:03;;;;;;;36.75;20.92;;;0.00;99.90;;;;;;4951424;29;20290;-26
2021/01/17 01:53:30;;;;;;;29.92;20.38;;;0.00;99.90;;;;;;4951978;29;20222;-26
2021/01/17 01:55:57;;;;;;;37.53;21.25;;;0.00;99.90;;;;;;4952006;29;20618;-26
2021/01/17 01:58:24;;;;;;;31.90;19.83;;;0.00;99.90;;;;;;4951587;29;20200;-26
2021/01/17 02:00:51;;;;;;;31.90;19.25;;;0.00;99.90;;;;;;4951139;29;20437;-26
2021/01/17 02:03:19;;;;;;;29.15;18.98;;;-0.10;99.90;;;;;;4952192;29;20196;-26
2021/01/17 02:05:46;;;;;;;33.42;20.48;;;-0.10;99.90;;;;;;4952363;29;20575;-26
2021/01/17 02:08:51;;;;;;;27.73;19.40;;;-0.10;99.90;;;;;;4952419;29;20694;-26
2021/01/17 02:11:30;;;;;;;32.08;20.15;;;-0.10;99.90;;;;;;4951538;29;20449;-26
2021/01/17 02:14:06;;;;;;;30.92;20.50;;;-0.20;99.90;;;;;;4951881;29;20716;-26
2021/01/17 02:16:34;;;;;;;30.45;20.85;;;-0.20;99.90;;;;;;4951703;29;20223;-26
2021/01/17 02:19:07;;;;;;;33.30;19.95;;;-0.10;99.90;;;;;;4950817;29;20215;-26
2021/01/17 02:21:37;;;;;;;31.85;19.58;;;-0.30;99.90;;;;;;4934988;29;20240;-26
2021/01/17 02:24:09;;;;;;;35.40;20.50;;;-0.20;99.90;;;;;;4933013;29;20217;-26
2021/01/17 02:26:38;;;;;;;29.77;19.08;;;-0.20;99.90;;;;;;4933171;29;20200;-26
2021/01/17 02:29:06;;;;;;;32.40;19.63;;;-0.20;99.90;;;;;;4932418;29;20787;-26
2021/01/17 02:31:34;;;;;;;34.88;18.83;;;-0.20;99.90;;;;;;4932205;29;20287;-26
2021/01/17 02:34:03;;;;;;;30.95;19.13;;;-0.10;99.90;;;;;;4918244;29;20193;-26
2021/01/17 02:36:43;;;;;;;30.38;18.77;;;0.00;99.90;;;;;;4937154;29;20749;-26
2021/01/17 02:39:14;;;;;;;31.98;20.35;;;0.10;99.90;;;;;;4936349;29;20248;-26
2021/01/17 02:41:57;;;;;;;34.78;21.42;;;-0.10;99.90;;;;;;4935314;29;20616;-25
2021/01/17 02:44:25;;;;;;;33.40;21.38;;;-0.10;99.90;;;;;;4936081;29;20231;-26
2021/01/17 02:46:52;;;;;;;35.85;20.35;;;0.00;99.90;;;;;;4935421;29;20435;-26
2021/01/17 02:49:19;;;;;;;31.83;18.65;;;0.00;99.90;;;;;;4936111;29;20276;-26
2021/01/17 02:51:47;;;;;;;30.77;19.95;;;0.00;99.90;;;;;;4936225;29;20205;-25
2021/01/17 02:54:20;;;;;;;33.25;19.77;;;0.00;99.90;;;;;;4938173;29;20208;-26
2021/01/17 02:57:00;;;;;;;29.23;19.50;;;-0.10;99.90;;;;;;4936563;29;20216;-25
2021/01/17 02:59:33;;;;;;;32.47;19.33;;;0.00;99.90;;;;;;4936290;29;20264;-26
2021/01/17 03:02:04;;;;;;;33.40;19.88;;;0.10;99.90;;;;;;4936300;29;20492;-26
2021/01/17 03:04:35;;;;;;;32.80;20.98;;;0.20;99.90;;;;;;4935477;29;20209;-26
2021/01/17 03:07:05;;;;;;;32.90;20.33;;;0.20;99.90;;;;;;4936070;29;20283;-26
2021/01/17 03:09:34;;;;;;;35.08;22.42;;;0.30;99.90;;;;;;4936165;29;20314;-26
2021/01/17 03:12:04;;;;;;;31.33;21.40;;;0.30;99.90;;;;;;4935949;29;20197;-26
2021/01/17 03:14:34;;;;;;;29.17;19.65;;;0.40;99.90;;;;;;4935217;29;20447;-26
2021/01/17 03:17:03;;;;;;;34.03;21.92;;;0.40;99.90;;;;;;4940336;29;20216;-26
2021/01/17 03:19:30;;;;;;;28.80;18.75;;;0.40;99.90;;;;;;4918855;29;20197;-26
2021/01/17 03:21:56;;;;;;;31.35;19.08;;;0.30;99.90;;;;;;4934956;29;20311;-26
2021/01/17 03:24:23;;;;;;;29.38;17.60;;;0.30;99.90;;;;;;4935280;29;20239;-26
2021/01/17 03:26:52;;;;;;;32.78;20.77;;;0.30;99.90;;;;;;4934636;29;20284;-26
2021/01/17 03:29:20;;;;;;;38.00;22.17;;;0.30;99.90;;;;;;4935520;29;20227;-26
2021/01/17 03:31:47;;;;;;;42.15;20.95;;;0.30;99.90;;;;;;4935410;29;20784;-26
2021/01/17 03:34:14;;;;;;;38.17;21.20;;;0.30;99.90;;;;;;4935519;29;20209;-27
2021/01/17 03:36:41;;;;;;;39.23;20.60;;;0.20;99.90;;;;;;4934845;29;20276;-26
2021/01/17 03:39:08;;;;;;;32.40;20.55;;;0.20;99.90;;;;;;4933909;29;20493;-26
2021/01/17 03:41:35;;;;;;;33.25;20.00;;;0.30;99.90;;;;;;4934429;29;20207;-26
2021/01/17 03:44:02;;;;;;;32.50;19.63;;;0.30;99.90;;;;;;4934123;29;20193;-26
2021/01/17 03:46:31;;;;;;;30.80;19.52;;;0.30;99.90;;;;;;4935286;29;20507;-26
2021/01/17 03:48:58;;;;;;;35.58;21.60;;;0.30;99.90;;;;;;4934660;29;20180;-26
2021/01/17 03:51:24;;;;;;;29.20;19.50;;;0.30;99.90;;;;;;4936015;29;20220;-26
2021/01/17 03:53:51;;;;;;;32.45;20.65;;;0.20;99.90;;;;;;4938682;29;20475;-25
2021/01/17 03:56:18;;;;;;;35.13;21.90;;;0.20;99.90;;;;;;4935974;29;20519;-26
2021/01/17 03:58:45;;;;;;;34.13;20.38;;;0.10;99.90;;;;;;4934498;29;20191;-26
2021/01/17 04:01:12;;;;;;;37.47;21.02;;;0.10;99.90;;;;;;4934492;29;20224;-25
2021/01/17 04:03:40;;;;;;;32.33;20.15;;;0.10;99.90;;;;;;4935249;29;20576;-26
2021/01/17 04:06:07;;;;;;;33.90;19.90;;;0.10;99.90;;;;;;4933937;29;20200;-26
2021/01/17 04:08:34;;;;;;;32.30;20.02;;;0.20;99.90;;;;;;4935402;29;20220;-26
2021/01/17 04:11:00;;;;;;;36.08;19.98;;;0.30;99.90;;;;;;4934769;29;20228;-26
2021/01/17 04:13:27;;;;;;;35.10;21.63;;;0.30;99.90;;;;;;4935270;29;20215;-25
2021/01/17 04:15:54;;;;;;;29.30;19.13;;;0.30;99.90;;;;;;4936049;29;20224;-26
2021/01/17 04:18:21;;;;;;;32.10;19.45;;;0.40;99.90;;;;;;4934476;29;20205;-26
2021/01/17 04:20:49;;;;;;;33.80;20.90;;;0.30;99.90;;;;;;4934808;29;20193;-26
2021/01/17 04:23:15;;;;;;;36.50;23.02;;;0.30;99.90;;;;;;4934431;29;20216;-26
2021/01/17 04:25:43;;;;;;;30.63;19.90;;;0.40;99.90;;;;;;4933992;29;20224;-26
2021/01/17 04:28:10;;;;;;;38.90;21.05;;;0.40;99.90;;;;;;4933878;29;20205;-26
2021/01/17 04:30:37;;;;;;;35.72;21.45;;;0.40;99.90;;;;;;4934565;29;20212;-26
2021/01/17 04:33:04;;;;;;;34.88;20.55;;;0.40;99.90;;;;;;4934287;29;20227;-26
2021/01/17 04:35:31;;;;;;;30.27;20.25;;;0.50;99.90;;;;;;4932504;29;20199;-26
2021/01/17 04:38:00;;;;;;;33.40;19.45;;;0.50;99.90;;;;;;4934159;29;20200;-26
2021/01/17 04:40:28;;;;;;;33.78;19.55;;;0.60;99.90;;;;;;4933226;29;20241;-26
2021/01/17 04:43:05;;;;;;;32.58;19.40;;;0.60;99.90;;;;;;4934005;29;20264;-26
2021/01/17 04:45:33;;;;;;;31.63;20.17;;;0.50;99.90;;;;;;4931837;29;20232;-26
2021/01/17 04:48:02;;;;;;;33.08;19.25;;;0.60;99.90;;;;;;4930104;29;20209;-27
2021/01/17 04:50:31;;;;;;;32.78;19.77;;;0.50;99.90;;;;;;4910804;29;20196;-26
2021/01/17 04:53:05;;;;;;;33.85;19.70;;;0.50;99.90;;;;;;4929323;29;20224;-26
2021/01/17 04:55:35;;;;;;;31.40;20.02;;;0.60;99.90;;;;;;4929722;29;20235;-26
2021/01/17 04:58:11;;;;;;;37.15;20.27;;;0.50;99.90;;;;;;4929452;29;20239;-26
2021/01/17 05:00:41;;;;;;;34.92;19.38;;;0.50;99.90;;;;;;4931895;29;20203;-26
2021/01/17 05:03:24;;;;;;;36.50;20.77;;;0.40;99.90;;;;;;4932469;29;20205;-26
2021/01/17 05:06:03;;;;;;;32.00;19.88;;;0.40;99.90;;;;;;4933158;29;20247;-26
2021/01/17 05:08:34;;;;;;;35.05;19.67;;;0.40;99.90;;;;;;4929110;29;20209;-26
2021/01/17 05:11:06;;;;;;;33.05;19.80;;;0.30;99.90;;;;;;4928398;29;20291;-26
2021/01/17 05:13:37;;;;;;;37.38;21.38;;;0.30;99.90;;;;;;4928270;29;20651;-26
2021/01/17 05:16:06;;;;;;;36.58;21.05;;;0.40;99.90;;;;;;4927620;29;20627;-26
2021/01/17 05:18:35;;;;;;;36.67;21.15;;;0.10;99.90;;;;;;4927033;29;20283;-26
2021/01/17 05:21:03;;;;;;;37.58;21.10;;;0.20;99.90;;;;;;4927735;29;20423;-26
2021/01/17 05:23:33;;;;;;;33.63;21.58;;;0.30;99.90;;;;;;4928059;29;20672;-26
2021/01/17 05:26:05;;;;;;;39.28;21.73;;;0.30;99.90;;;;;;4928190;29;20360;-27
2021/01/17 05:28:33;;;;;;;40.42;22.63;;;0.30;99.90;;;;;;4927260;29;20580;-26
2021/01/17 05:31:00;;;;;;;36.63;21.70;;;0.30;99.90;;;;;;4926670;29;20193;-26
2021/01/17 05:33:29;;;;;;;36.78;20.95;;;0.30;99.90;;;;;;4928226;29;20227;-26
2021/01/17 05:35:57;;;;;;;33.80;20.20;;;0.40;99.90;;;;;;4928790;29;20594;-26
2021/01/17 05:38:24;;;;;;;36.30;20.52;;;0.30;99.90;;;;;;4927947;29;20615;-26
2021/01/17 05:40:52;;;;;;;36.17;22.17;;;0.30;99.90;;;;;;4927261;29;20360;-26
2021/01/17 05:43:19;;;;;;;36.30;22.02;;;0.30;99.90;;;;;;4925843;29;20439;-26
2021/01/17 05:45:46;;;;;;;36.77;23.03;;;0.40;99.90;;;;;;4927652;29;20386;-26
2021/01/17 05:48:13;;;;;;;36.35;22.25;;;0.50;99.90;;;;;;4927240;29;20561;-26
2021/01/17 05:50:44;;;;;;;39.88;21.83;;;0.60;99.90;;;;;;4926741;29;20343;-26
2021/01/17 05:53:12;;;;;;;37.65;21.90;;;0.60;99.90;;;;;;4928305;29;20213;-26
2021/01/17 05:55:39;;;;;;;40.95;21.00;;;0.60;99.90;;;;;;4928389;29;20465;-27
2021/01/17 05:58:24;;;;;;;33.90;20.85;;;0.60;99.90;;;;;;4927746;29;20283;-26
2021/01/17 06:00:53;;;;;;;45.78;23.10;;;0.70;99.90;;;;;;4928871;29;20451;-26
2021/01/17 06:03:28;;;;;;;34.53;20.20;;;0.70;99.90;;;;;;4928283;29;20324;-25
2021/01/17 06:06:00;;;;;;;33.88;20.98;;;0.70;99.90;;;;;;4928675;29;20529;-25
2021/01/17 06:08:27;;;;;;;31.83;19.25;;;0.80;99.90;;;;;;4927386;29;20605;-26
2021/01/17 06:10:56;;;;;;;38.05;22.65;;;0.80;99.90;;;;;;4928399;29;20476;-26
2021/01/17 06:13:25;;;;;;;39.47;23.15;;;0.70;99.90;;;;;;4929215;29;20205;-26
2021/01/17 06:15:52;;;;;;;35.90;22.57;;;0.70;99.90;;;;;;4928983;29;20208;-25
2021/01/17 06:18:20;;;;;;;37.33;21.90;;;0.70;99.90;;;;;;4928643;29;20526;-26
2021/01/17 06:20:47;;;;;;;38.65;22.13;;;0.70;99.90;;;;;;4927424;29;20947;-25
2021/01/17 06:23:20;;;;;;;36.60;22.00;;;0.70;99.90;;;;;;4927975;29;20544;-25
2021/01/17 06:26:01;;;;;;;42.35;23.75;;;0.70;99.90;;;;;;4926805;29;20451;-26
2021/01/17 06:28:39;;;;;;;42.38;23.02;;;0.70;99.90;;;;;;4926760;29;20360;-25
2021/01/17 06:31:06;;;;;;;37.90;21.10;;;0.70;99.90;;;;;;4928688;29;20191;-26
2021/01/17 06:33:34;;;;;;;36.35;19.95;;;0.60;99.90;;;;;;4929355;29;20449;-25
2021/01/17 06:36:11;;;;;;;43.80;23.90;;;0.70;99.90;;;;;;4926947;29;20220;-25
2021/01/17 06:38:38;;;;;;;36.97;22.85;;;0.60;99.90;;;;;;4926241;29;20853;-26
2021/01/17 06:41:05;;;;;;;39.63;22.90;;;0.60;99.90;;;;;;4926597;29;20639;-25
2021/01/17 06:43:32;;;;;;;34.22;20.40;;;0.60;99.90;;;;;;4928118;29;20215;-25
2021/01/17 06:45:59;;;;;;;40.87;22.73;;;0.60;99.90;;;;;;4928381;29;20395;-26
2021/01/17 06:48:27;;;;;;;42.25;24.63;;;0.60;99.90;;;;;;4929207;29;20501;-26
2021/01/17 06:50:54;;;;;;;41.15;24.05;;;0.60;99.90;;;;;;4926384;29;20204;-25
2021/01/17 06:53:22;;;;;;;42.07;23.40;;;0.60;99.90;;;;;;4928231;29;20296;-26
2021/01/17 06:55:50;;;;;;;38.83;21.00;;;0.50;99.90;;;;;;4927645;29;20498;-26
2021/01/17 06:58:18;;;;;;;36.78;22.05;;;0.50;99.90;;;;;;4927425;29;20846;-25
2021/01/17 07:00:46;;;;;;;39.15;21.63;;;0.50;99.90;;;;;;4927667;29;20509;-25
2021/01/17 07:03:17;;;;;;;42.05;24.20;;;0.50;99.90;;;;;;4928284;29;20403;-25
2021/01/17 07:06:05;;;;;;;39.83;23.50;;;0.50;99.90;;;;;;4925609;29;20496;-25
2021/01/17 07:08:55;;;;;;;41.17;24.07;;;0.50;99.90;;;;;;4927532;29;20793;-25
2021/01/17 07:11:32;;;;;;;40.42;23.40;;;0.60;99.90;;;;;;4926600;29;20955;-25
2021/01/17 07:14:06;;;;;;;34.60;22.50;;;0.60;99.90;;;;;;4927692;29;20204;-25
2021/01/17 07:16:33;;;;;;;40.72;23.02;;;0.60;99.90;;;;;;4927249;29;20511;-25
2021/01/17 07:19:05;;;;;;;37.23;21.43;;;0.60;99.90;;;;;;4929413;29;20188;-25
2021/01/17 07:21:41;;;;;;;42.00;23.23;;;0.60;99.90;;;;;;4930701;29;20486;-25
2021/01/17 07:24:09;;;;;;;37.65;21.13;;;0.60;99.90;;;;;;4926768;29;20220;-25
2021/01/17 07:26:47;;;;;;;39.75;22.20;;;0.60;99.90;;;;;;4929122;29;20355;-25
2021/01/17 07:29:16;;;;;;;42.75;24.73;;;0.70;99.90;;;;;;4929208;29;20200;-25
2021/01/17 07:31:49;;;;;;;39.88;23.23;;;0.60;99.90;;;;;;4929808;29;20197;-26
2021/01/17 07:34:16;;;;;;;40.78;22.38;;;0.70;99.90;;;;;;4929237;29;20208;-26
2021/01/17 07:36:48;;;;;;;37.08;21.50;;;0.70;99.90;;;;;;4929085;29;20300;-25
2021/01/17 07:39:18;;;;;;;36.88;21.63;;;0.70;99.90;;;;;;4928570;29;20232;-25
2021/01/17 07:41:48;;;;;;;38.50;23.07;;;0.80;99.90;;;;;;4930091;29;20205;-26
2021/01/17 07:44:21;;;;;;;38.28;23.73;;;0.80;99.90;;;;;;4930175;29;20554;-25
2021/01/17 07:46:48;;;;;;;43.83;26.20;;;0.80;99.90;;;;;;4929008;29;20675;-25
2021/01/17 07:49:16;;;;;;;42.90;24.10;;;0.80;99.90;;;;;;4928913;29;20599;-25
2021/01/17 07:51:45;;;;;;;45.40;25.57;;;0.90;99.90;;;;;;4928253;29;20497;-26
2021/01/17 07:54:20;;;;;;;49.97;29.77;;;0.90;99.90;;;;;;4929878;29;20451;-25
2021/01/17 07:56:48;;;;;;;55.73;28.23;;;1.00;99.90;;;;;;4929278;29;20588;-26
2021/01/17 07:59:24;;;;;;;38.23;25.20;;;1.00;99.90;;;;;;4930033;29;20749;-25
2021/01/17 08:01:52;;;;;;;54.43;32.00;;;1.10;99.90;;;;;;4929350;29;20881;-25
2021/01/17 08:04:27;;;;;;;61.10;34.13;;;1.10;99.90;;;;;;4927559;29;20945;-26
2021/01/17 08:06:57;;;;;;;47.80;28.00;;;1.10;99.90;;;;;;4928943;29;20967;-25
2021/01/17 08:09:49;;;;;;;47.40;28.97;;;1.10;99.90;;;;;;4928248;29;20473;-25
2021/01/17 08:12:33;;;;;;;47.10;26.40;;;1.30;99.90;;;;;;4928395;29;20538;-25
2021/01/17 08:15:32;;;;;;;42.60;25.10;;;1.30;99.90;;;;;;4928389;29;20447;-25
2021/01/17 08:17:59;;;;;;;48.87;27.70;;;1.40;99.90;;;;;;4929202;29;20475;-25
2021/01/17 08:20:29;;;;;;;44.43;23.70;;;1.50;99.90;;;;;;4928410;29;20443;-26
2021/01/17 08:23:13;;;;;;;52.70;31.80;;;1.50;99.90;;;;;;4927147;29;20553;-25
2021/01/17 08:25:51;;;;;;;41.90;26.00;;;1.50;99.90;;;;;;4928633;29;20494;-26
2021/01/17 08:28:46;;;;;;;46.83;24.37;;;1.60;99.90;;;;;;4930030;29;20486;-26
2021/01/17 08:31:35;;;;;;;38.30;24.47;;;1.60;99.90;;;;;;4925825;29;20477;-25
2021/01/17 08:34:16;;;;;;;36.03;22.60;;;1.60;99.90;;;;;;4926734;29;20676;-26
2021/01/17 08:36:48;;;;;;;43.30;23.60;;;1.60;99.90;;;;;;4927763;29;20471;-26
2021/01/17 08:39:43;;;;;;;40.97;24.27;;;1.60;99.90;;;;;;4927629;29;20855;-26
2021/01/17 08:42:29;;;;;;;42.70;24.13;;;1.60;99.90;;;;;;4926669;29;20554;-25
2021/01/17 08:44:57;;;;;;;43.63;23.97;;;1.60;99.90;;;;;;4926899;29;20792;-26
2021/01/17 08:47:24;;;;;;;36.50;23.50;;;1.60;99.90;;;;;;4926652;29;20792;-26
2021/01/17 08:49:51;;;;;;;43.03;24.57;;;1.60;99.90;;;;;;4926468;29;20446;-26
2021/01/17 08:52:25;;;;;;;39.33;24.27;;;1.60;99.90;;;;;;4925204;29;20853;-26
2021/01/17 08:54:52;;;;;;;40.10;24.37;;;1.70;99.90;;;;;;4927201;29;20439;-26
2021/01/17 08:57:41;;;;;;;38.03;23.37;;;1.80;99.90;;;;;;4927010;29;20660;-26
2021/01/17 09:00:11;;;;;;;40.97;27.27;;;1.90;99.90;;;;;;4927162;29;20451;-26
2021/01/17 09:02:38;;;;;;;44.20;22.83;;;2.00;99.90;;;;;;4926144;29;20752;-26
2021/01/17 09:05:16;;;;;;;41.97;24.97;;;2.10;99.90;;;;;;4926217;29;20948;-26
2021/01/17 09:07:44;;;;;;;38.60;23.20;;;2.10;99.90;;;;;;4927651;29;20557;-26
2021/01/17 09:10:14;;;;;;;40.03;24.40;;;2.20;99.90;;;;;;4926836;29;20442;-26
2021/01/17 09:12:42;;;;;;;40.93;24.53;;;2.30;99.90;;;;;;4925688;29;20538;-26
2021/01/17 09:15:20;;;;;;;31.53;20.93;;;2.20;99.90;;;;;;4925296;29;20439;-26
2021/01/17 09:17:57;;;;;;;36.83;22.73;;;2.30;99.90;;;;;;4926880;29;20538;-26
2021/01/17 09:20:26;;;;;;;40.23;23.90;;;2.40;99.90;;;;;;4926011;29;20446;-26
2021/01/17 09:22:58;;;;;;;42.67;26.30;;;2.60;99.90;;;;;;4925612;29;20477;-25
2021/01/17 09:25:28;;;;;;;34.53;23.10;;;2.70;99.90;;;;;;4925058;29;20435;-25
2021/01/17 09:27:56;;;;;;;38.70;22.70;;;2.80;99.90;;;;;;4926547;29;21070;-25
2021/01/17 09:30:24;;;;;;;37.67;21.90;;;2.80;99.90;;;;;;4926081;29;20739;-26
2021/01/17 09:32:52;;;;;;;37.60;22.33;;;2.80;99.90;;;;;;4927465;29;20447;-26
2021/01/17 09:35:22;;;;;;;34.03;23.20;;;2.90;99.90;;;;;;4924396;29;20941;-27
2021/01/17 09:38:00;;;;;;;41.57;22.30;;;2.90;99.90;;;;;;4925950;29;20482;-26
2021/01/17 09:40:27;;;;;;;31.53;22.53;;;3.00;99.90;;;;;;4926893;29;20478;-26
2021/01/17 09:42:54;;;;;;;40.90;24.00;;;3.00;99.90;;;;;;4926177;29;20789;-26
2021/01/17 09:45:21;;;;;;;33.07;22.43;;;2.90;99.90;;;;;;4927861;29;20866;-25
2021/01/17 09:47:48;;;;;;;35.90;22.30;;;2.90;99.90;;;;;;4925288;29;20439;-26
2021/01/17 09:50:15;;;;;;;38.37;23.63;;;2.90;99.90;;;;;;4925055;29;20646;-25
2021/01/17 09:52:42;;;;;;;31.77;21.67;;;3.00;99.90;;;;;;4926152;29;20467;-25
2021/01/17 09:55:12;;;;;;;38.93;24.07;;;3.20;99.90;;;;;;4926871;29;20778;-25
2021/01/17 09:57:41;;;;;;;35.47;22.33;;;3.10;99.90;;;;;;4926758;29;20490;-25
2021/01/17 10:00:13;;;;;;;36.77;24.50;;;3.10;99.90;;;;;;4925831;29;20447;-26
2021/01/17 10:02:44;;;;;;;26.97;19.07;;;3.20;99.90;;;;;;4925430;29;20587;-25
2021/01/17 10:05:12;;;;;;;30.07;20.10;;;3.20;99.90;;;;;;4927308;29;20450;-25
2021/01/17 10:07:39;;;;;;;32.63;21.80;;;3.20;99.90;;;;;;4926252;29;20740;-24
2021/01/17 10:10:11;;;;;;;37.70;20.90;;;3.20;99.90;;;;;;4926645;29;21019;-24
2021/01/17 10:12:37;;;;;;;35.67;22.20;;;3.40;99.90;;;;;;4925637;29;20983;-26
2021/01/17 10:15:15;;;;;;;32.83;20.50;;;3.50;99.90;;;;;;4925941;29;20644;-25
2021/01/17 10:17:45;;;;;;;31.33;20.67;;;3.50;99.90;;;;;;4926330;29;20518;-26
2021/01/17 10:20:22;;;;;;;33.63;23.43;;;3.60;99.90;;;;;;4927094;29;20457;-25
2021/01/17 10:22:57;;;;;;;26.77;19.20;;;3.70;99.90;;;;;;4926441;29;20469;-26
2021/01/17 10:25:28;;;;;;;28.90;20.33;;;3.80;99.90;;;;;;4925388;29;20845;-25
2021/01/17 10:28:01;;;;;;;29.20;18.60;;;3.80;99.90;;;;;;4926484;29;20833;-26
2021/01/17 10:30:32;;;;;;;32.50;21.07;;;3.90;99.90;;;;;;4923641;29;20487;-26
2021/01/17 10:33:03;;;;;;;44.23;21.50;;;4.00;99.90;;;;;;4926144;29;20944;-27
2021/01/17 10:35:32;;;;;;;32.40;20.80;;;4.00;99.90;;;;;;4921063;29;20546;-25
2021/01/17 10:38:02;;;;;;;36.90;23.80;;;4.00;99.90;;;;;;4921439;29;20640;-25
2021/01/17 10:40:34;;;;;;;35.40;22.57;;;4.00;99.90;;;;;;4920625;29;20808;-26
2021/01/17 10:43:06;;;;;;;37.63;24.07;;;4.00;99.90;;;;;;4920380;29;20455;-25
2021/01/17 10:45:41;;;;;;;29.33;20.57;;;4.10;99.90;;;;;;4920184;29;20751;-25
2021/01/17 10:48:11;;;;;;;30.53;19.90;;;4.40;99.90;;;;;;4921439;29;20439;-25
2021/01/17 10:50:52;;;;;;;37.90;22.10;;;4.50;99.90;;;;;;4919699;29;20463;-25
2021/01/17 10:53:23;;;;;;;32.50;20.37;;;4.70;99.90;;;;;;4918302;29;20465;-25
2021/01/17 10:55:52;;;;;;;30.50;21.67;;;4.80;99.90;;;;;;4925496;29;20720;-25
2021/01/17 10:58:23;;;;;;;34.87;21.70;;;4.70;99.90;;;;;;4924080;29;20964;-25
2021/01/17 11:00:53;;;;;;;28.53;19.37;;;4.70;99.90;;;;;;4923060;29;20676;-25
2021/01/17 11:03:30;;;;;;;28.50;20.20;;;4.70;99.90;;;;;;4922911;29;20681;-25
2021/01/17 11:06:06;;;;;;;34.07;20.57;;;4.70;99.90;;;;;;4922408;29;20477;-27
2021/01/17 11:08:34;;;;;;;30.97;21.03;;;4.60;99.90;;;;;;4923331;29;20466;-25
2021/01/17 11:11:02;;;;;;;27.97;21.00;;;4.30;99.90;;;;;;4922169;29;20463;-25
2021/01/17 11:13:29;;;;;;;35.30;21.70;;;4.20;99.90;;;;;;4923040;29;20459;-24
2021/01/17 11:15:56;;;;;;;34.33;21.73;;;4.00;99.90;;;;;;4919553;29;20804;-24
2021/01/17 11:18:22;;;;;;;30.53;19.80;;;4.00;99.90;;;;;;4918096;29;20533;-27
2021/01/17 11:20:55;;;;;;;25.80;19.63;;;4.00;99.90;;;;;;4918612;29;20494;-27
2021/01/17 11:23:24;;;;;;;33.47;20.47;;;4.10;99.90;;;;;;4919703;29;21064;-27
2021/01/17 11:26:03;;;;;;;27.90;20.07;;;4.20;99.90;;;;;;4919811;29;20875;-26
2021/01/17 11:28:31;;;;;;;30.57;20.40;;;4.40;99.90;;;;;;4920042;29;20510;-27
2021/01/17 11:31:11;;;;;;;31.47;22.30;;;4.70;99.90;;;;;;4926185;29;20487;-24
2021/01/17 11:33:38;;;;;;;28.60;19.60;;;4.90;99.90;;;;;;4927753;29;20458;-24
2021/01/17 11:36:05;;;;;;;27.60;18.73;;;5.10;99.90;;;;;;4922856;29;21039;-26
2021/01/17 11:38:43;;;;;;;35.70;20.83;;;5.10;99.90;;;;;;4921258;29;20501;-24
2021/01/17 11:41:11;;;;;;;33.60;22.13;;;5.00;99.90;;;;;;4919397;29;20454;-26
2021/01/17 11:43:38;;;;;;;28.00;19.20;;;5.00;99.90;;;;;;4920431;29;20636;-24
2021/01/17 11:46:06;;;;;;;29.13;20.30;;;5.10;99.90;;;;;;4918170;29;20704;-26
2021/01/17 11:48:34;;;;;;;28.10;19.30;;;5.20;99.90;;;;;;4916369;29;20537;-26
2021/01/17 11:51:01;;;;;;;26.97;19.37;;;5.30;99.90;;;;;;4920327;29;20509;-26
2021/01/17 11:53:29;;;;;;;33.63;19.17;;;5.30;99.90;;;;;;4919612;29;20719;-26
2021/01/17 11:55:56;;;;;;;30.30;20.50;;;5.40;99.90;;;;;;4918351;29;20756;-27
2021/01/17 11:58:26;;;;;;;31.33;22.80;;;5.40;99.90;;;;;;4920273;29;20617;-27
2021/01/17 12:00:58;;;;;;;25.93;19.17;;;5.40;99.90;;;;;;4920636;29;20665;-26
2021/01/17 12:03:33;;;;;;;26.27;19.50;;;5.40;99.90;;;;;;4922135;29;20784;-26
2021/01/17 12:06:08;;;;;;;27.20;19.00;;;5.20;99.90;;;;;;4920573;29;20438;-25
2021/01/17 12:08:53;;;;;;;28.97;19.80;;;5.10;99.90;;;;;;4922041;29;20454;-26
2021/01/17 12:11:35;;;;;;;27.50;19.30;;;5.00;99.90;;;;;;4905253;29;20849;-26
2021/01/17 12:14:08;;;;;;;29.43;19.90;;;5.10;99.90;;;;;;4922131;29;20435;-25
2021/01/17 12:16:37;;;;;;;32.07;20.80;;;5.00;99.90;;;;;;4921270;29;20436;-25
2021/01/17 12:19:04;;;;;;;29.67;19.70;;;5.10;99.90;;;;;;4921049;29;20670;-26
2021/01/17 12:21:32;;;;;;;30.00;19.93;;;5.20;99.90;;;;;;4921011;29;20443;-26
2021/01/17 12:24:00;;;;;;;34.03;20.83;;;5.20;99.90;;;;;;4923413;29;20503;-26
2021/01/17 12:26:28;;;;;;;24.97;18.30;;;5.20;99.90;;;;;;4920667;29;20450;-27
2021/01/17 12:28:55;;;;;;;26.73;18.00;;;5.00;99.90;;;;;;4919097;29;20462;-27
2021/01/17 12:31:24;;;;;;;26.13;18.73;;;4.90;99.90;;;;;;4923583;29;20664;-26
2021/01/17 12:33:51;;;;;;;28.83;21.17;;;4.90;99.90;;;;;;4925600;29;20945;-26
2021/01/17 12:36:20;;;;;;;25.93;18.33;;;4.80;99.90;;;;;;4922812;29;21058;-26
2021/01/17 12:38:47;;;;;;;25.73;19.90;;;4.80;99.90;;;;;;4921905;29;20813;-26
2021/01/17 12:41:16;;;;;;;26.43;19.93;;;4.80;99.90;;;;;;4922278;29;20878;-26
2021/01/17 12:43:44;;;;;;;29.73;19.10;;;4.80;99.90;;;;;;4920429;29;20776;-26
2021/01/17 12:46:12;;;;;;;21.63;17.03;;;4.70;99.90;;;;;;4918806;29;20553;-27
2021/01/17 12:48:40;;;;;;;25.23;17.30;;;4.70;99.90;;;;;;4918217;29;20470;-27
2021/01/17 12:51:07;;;;;;;32.70;20.60;;;4.60;99.90;;;;;;4920286;29;20522;-26